KHLG/HLG METAR and TAF weather

Enter ICAO airport designator
Station Type Date Time Source
KHLG METAR 2019/10/22 15:53 UTC NOAA

KHLG 221553Z 19009KT 10SM FEW011 OVC110 13/11 A2982 RMK AO2 RAB1456E20 SLP095 P0000 T01280111


Station Type Date Time Source
KHLG Decoded METAR 2019/10/22 15:53 UTC NOAA

WHEELING OHIO COUNTY AIRPORT, WV, United States (KHLG) 40-10N 080-39W 372M
Oct 22, 2019 - 11:53 AM EDT / 2019.10.22 1553 UTC
Wind: from the S (190 degrees) at 10 MPH (9 KT):0
Visibility: 10 mile(s):0
Sky conditions: overcast
Precipitation last hour: A trace
Temperature: 55.0 F (12.8 C)
Dew Point: 52.0 F (11.1 C)
Relative Humidity: 89%
Pressure (altimeter): 29.82 in. Hg (1009 hPa)
ob: KHLG 221553Z 19009KT 10SM FEW011 OVC110 13/11 A2982 RMK AO2 RAB1456E20 SLP095 P0000 T01280111
cycle: 16

Station Type Date Time Source
KHLG TAF 2019/10/22 16:45 UTC NOAA

TAF
AMD KHLG 221543Z 2216/2312 19010KT P6SM -RA BKN080
FM221700 22010G20KT P6SM BKN050
FM222200 23008KT P6SM BKN050

Example: see airport list